createdAt,value
2022-08-02T00:00:14.709Z,9.27
2022-08-02T00:02:43.653Z,5.78
2022-08-02T00:05:12.056Z,8.95
2022-08-02T00:07:41.361Z,6.10
2022-08-02T00:10:11.087Z,10.77
2022-08-02T00:12:39.420Z,6.45
2022-08-02T00:15:09.060Z,5.75
2022-08-02T00:17:36.861Z,7.15
2022-08-02T00:20:06.039Z,7.68
2022-08-02T00:22:33.583Z,7.50
2022-08-02T00:25:01.140Z,11.85
2022-08-02T00:27:29.005Z,6.93
2022-08-02T00:29:56.943Z,6.18
2022-08-02T00:32:24.739Z,8.15
2022-08-02T00:34:52.620Z,11.07
2022-08-02T00:37:20.226Z,11.30
2022-08-02T00:39:47.860Z,9.30
2022-08-02T00:42:16.119Z,10.18
2022-08-02T00:44:43.945Z,6.43
2022-08-02T00:47:11.648Z,8.90
2022-08-02T00:49:47.116Z,8.40
2022-08-02T00:52:15.124Z,7.22
2022-08-02T00:57:10.179Z,9.38
2022-08-02T00:59:37.921Z,6.05
2022-08-02T01:02:06.565Z,7.40
2022-08-02T01:04:34.287Z,6.63
2022-08-02T01:07:12.046Z,10.77
2022-08-02T01:09:42.410Z,9.07
2022-08-02T01:12:11.948Z,8.90
2022-08-02T01:14:43.150Z,9.73
2022-08-02T01:17:46.395Z,8.88
2022-08-02T01:20:38.263Z,7.35
2022-08-02T01:23:33.722Z,9.85
2022-08-02T01:26:55.242Z,9.18
2022-08-02T01:29:58.635Z,8.07
2022-08-02T01:32:30.715Z,9.80
2022-08-02T01:35:11.689Z,7.00
2022-08-02T01:38:04.517Z,10.70
2022-08-02T01:40:36.323Z,8.70
2022-08-02T01:43:07.262Z,8.93
2022-08-02T01:45:42.181Z,8.38
2022-08-02T01:48:11.468Z,7.57
2022-08-02T01:50:41.180Z,6.00
2022-08-02T01:53:11.071Z,8.25
2022-08-02T01:55:57.934Z,5.72
2022-08-02T01:58:31.008Z,8.68
2022-08-02T02:01:00.063Z,5.30
2022-08-02T02:03:30.946Z,5.50
2022-08-02T02:06:03.580Z,6.60
2022-08-02T02:08:43.622Z,10.10
2022-08-02T02:12:11.760Z,5.20
2022-08-02T02:14:02.457Z,6.43
2022-08-02T02:16:32.117Z,9.95
2022-08-02T02:19:02.762Z,7.38
2022-08-02T02:21:31.354Z,7.30
2022-08-02T02:23:59.857Z,7.95
2022-08-02T02:26:31.679Z,6.43
2022-08-02T02:29:04.250Z,5.78
2022-08-02T02:31:36.418Z,5.53
2022-08-02T02:34:11.787Z,8.43
2022-08-02T02:36:47.835Z,8.40
2022-08-02T02:39:17.723Z,9.90
2022-08-02T02:41:46.220Z,5.18
2022-08-02T02:44:17.083Z,7.40
2022-08-02T02:46:45.451Z,10.60
2022-08-02T02:49:16.242Z,10.40
2022-08-02T02:51:44.445Z,6.88
2022-08-02T02:54:32.645Z,10.23
2022-08-02T02:57:01.892Z,6.18
2022-08-02T02:59:30.286Z,7.53
2022-08-02T03:02:08.440Z,9.93
2022-08-02T03:04:57.153Z,6.85
2022-08-02T03:07:25.950Z,9.50
2022-08-02T03:09:54.228Z,7.18
2022-08-02T03:12:30.249Z,7.15
2022-08-02T03:15:05.664Z,7.90
2022-08-02T03:17:43.888Z,9.70
2022-08-02T03:20:22.799Z,7.45
2022-08-02T03:22:50.598Z,12.38
2022-08-02T03:25:18.830Z,10.38
2022-08-02T03:27:47.182Z,10.88
2022-08-02T03:30:15.175Z,10.70
2022-08-02T03:32:45.588Z,11.95
2022-08-02T03:35:21.323Z,5.03
2022-08-02T03:37:54.092Z,8.50
2022-08-02T03:40:22.278Z,10.18
2022-08-02T03:45:18.562Z,7.32
2022-08-02T03:52:43.078Z,11.50
2022-08-02T03:55:12.704Z,5.80
2022-08-02T03:57:41.657Z,7.65
2022-08-02T04:00:11.419Z,8.40
2022-08-02T04:02:41.947Z,10.00
2022-08-02T04:05:12.328Z,9.18
2022-08-02T04:08:32.625Z,9.35
2022-08-02T04:10:27.653Z,6.80
2022-08-02T04:12:57.036Z,7.28
2022-08-02T04:15:24.964Z,10.45
2022-08-02T04:17:59.512Z,8.05
2022-08-02T04:20:30.021Z,9.73
2022-08-02T04:23:02.307Z,9.88
2022-08-02T04:25:35.430Z,10.07
2022-08-02T04:28:15.480Z,10.80
2022-08-02T04:30:49.750Z,7.80
2022-08-02T04:33:17.614Z,10.02
2022-08-02T04:35:45.683Z,10.60
2022-08-02T04:38:15.409Z,8.98
2022-08-02T04:40:55.279Z,11.30
2022-08-02T04:43:23.416Z,9.65
2022-08-02T04:45:54.064Z,8.38
2022-08-02T04:48:22.428Z,11.82
2022-08-02T04:50:50.604Z,15.25
2022-08-02T04:55:46.305Z,10.15
2022-08-02T04:58:38.992Z,15.77
2022-08-02T05:01:02.449Z,12.73
2022-08-02T05:03:31.199Z,11.63
2022-08-02T05:06:00.624Z,10.18
2022-08-02T05:08:28.327Z,12.57
2022-08-02T05:10:56.059Z,10.60
2022-08-02T05:13:23.691Z,11.70
2022-08-02T05:15:51.405Z,11.38
2022-08-02T05:18:19.170Z,11.65
2022-08-02T05:20:46.809Z,15.63
2022-08-02T05:23:14.418Z,9.52
2022-08-02T05:25:41.984Z,12.20
2022-08-02T05:28:11.612Z,14.30
2022-08-02T05:30:40.501Z,10.90
2022-08-02T05:33:09.553Z,8.77
2022-08-02T05:35:37.356Z,11.05
2022-08-02T05:38:04.955Z,7.70
2022-08-02T05:40:38.046Z,10.35
2022-08-02T05:43:23.431Z,11.52
2022-08-02T05:45:54.366Z,12.63
2022-08-02T05:48:24.508Z,13.38
2022-08-02T05:51:00.034Z,8.90
2022-08-02T05:53:40.072Z,12.35
2022-08-02T05:56:24.140Z,13.00
2022-08-02T05:59:00.779Z,15.07
2022-08-02T06:01:37.895Z,10.50
2022-08-02T06:04:10.606Z,15.23
2022-08-02T06:06:43.330Z,10.65
2022-08-02T06:09:16.621Z,14.55
2022-08-02T06:12:00.749Z,13.57
2022-08-02T06:14:34.277Z,14.75
2022-08-02T06:17:05.593Z,11.65
2022-08-02T06:19:47.045Z,15.98
2022-08-02T06:22:40.609Z,12.55
2022-08-02T06:25:11.506Z,15.18
2022-08-02T06:27:57.092Z,17.13
2022-08-02T06:30:24.812Z,12.75
2022-08-02T06:32:52.884Z,12.32
2022-08-02T06:37:58.915Z,12.77
2022-08-02T06:40:31.409Z,13.63
2022-08-02T06:43:38.161Z,15.23
2022-08-02T06:46:43.008Z,13.30
2022-08-02T06:48:56.016Z,17.52
2022-08-02T06:51:24.159Z,13.60
2022-08-02T06:53:51.752Z,14.57
2022-08-02T06:56:20.744Z,13.30
2022-08-02T06:58:48.358Z,14.55
2022-08-02T07:01:17.991Z,14.25
2022-08-02T07:03:53.089Z,11.65
2022-08-02T07:06:21.252Z,12.13
2022-08-02T07:09:11.240Z,16.13
2022-08-02T07:14:04.404Z,13.13
2022-08-02T07:16:32.895Z,16.85
2022-08-02T07:19:00.471Z,17.40
2022-08-02T07:21:59.328Z,14.57
2022-08-02T07:24:15.691Z,14.02
2022-08-02T07:27:08.553Z,16.70
2022-08-02T07:29:33.599Z,12.65
2022-08-02T07:32:16.639Z,15.10
2022-08-02T07:34:50.922Z,14.77
2022-08-02T07:37:53.173Z,14.13
2022-08-02T07:40:14.657Z,14.60
2022-08-02T07:42:44.313Z,17.20
2022-08-02T07:45:12.970Z,14.60
2022-08-02T07:47:41.822Z,18.10
2022-08-02T07:50:10.329Z,13.30
2022-08-02T07:52:38.819Z,10.75
2022-08-02T07:55:07.145Z,14.13
2022-08-02T07:57:34.916Z,15.27
2022-08-02T08:00:05.508Z,14.02
2022-08-02T08:02:39.912Z,15.02
2022-08-02T08:05:08.101Z,16.08
2022-08-02T08:07:35.942Z,11.98
2022-08-02T08:10:05.088Z,11.80
2022-08-02T08:12:33.267Z,14.70
2022-08-02T08:15:00.845Z,10.88
2022-08-02T08:17:28.414Z,12.07
2022-08-02T08:19:56.236Z,13.35
2022-08-02T08:22:24.918Z,10.68
2022-08-02T08:24:52.489Z,13.57
2022-08-02T08:27:22.531Z,9.05
2022-08-02T08:29:50.312Z,9.77
2022-08-02T08:32:18.800Z,9.02
2022-08-02T08:34:46.961Z,11.35
2022-08-02T08:39:57.409Z,9.90
2022-08-02T08:42:31.324Z,14.07
2022-08-02T08:45:00.371Z,9.35
2022-08-02T08:47:35.836Z,13.10
2022-08-02T08:50:18.877Z,10.18
2022-08-02T08:52:54.238Z,12.18
2022-08-02T08:55:24.984Z,11.55
2022-08-02T08:57:54.858Z,8.55
2022-08-02T09:00:22.450Z,9.50
2022-08-02T09:02:50.067Z,11.02
2022-08-02T09:05:18.665Z,10.15
2022-08-02T09:07:48.964Z,11.43
2022-08-02T09:10:34.673Z,8.63
2022-08-02T09:13:39.066Z,9.23
2022-08-02T09:16:12.614Z,10.77
2022-08-02T09:18:44.783Z,10.73
2022-08-02T09:21:15.175Z,8.25
2022-08-02T09:23:48.891Z,9.48
2022-08-02T09:26:22.748Z,8.13
2022-08-02T09:28:52.481Z,9.85
2022-08-02T09:31:24.429Z,10.00
2022-08-02T09:33:54.944Z,12.05
2022-08-02T09:36:24.072Z,9.60
2022-08-02T09:39:06.961Z,7.53
2022-08-02T09:41:36.414Z,9.52
2022-08-02T09:44:07.213Z,7.20
2022-08-02T09:46:40.077Z,11.80
2022-08-02T09:49:19.508Z,11.45
2022-08-02T09:51:47.553Z,10.40
2022-08-02T09:56:56.929Z,8.45
2022-08-02T09:59:26.319Z,12.23
2022-08-02T10:02:01.209Z,7.63
2022-08-02T10:04:53.188Z,8.18
2022-08-02T10:07:23.128Z,9.95
2022-08-02T10:09:51.984Z,8.30
2022-08-02T10:12:23.032Z,10.13
2022-08-02T10:14:51.963Z,8.98
2022-08-02T10:17:21.244Z,11.43
2022-08-02T10:20:02.373Z,13.48
2022-08-02T10:22:33.596Z,7.10
2022-08-02T10:25:04.141Z,7.38
2022-08-02T10:27:55.207Z,7.60
2022-08-02T10:30:23.105Z,7.85
2022-08-02T10:32:54.728Z,11.73
2022-08-02T10:35:27.101Z,7.45
2022-08-02T10:38:08.005Z,9.40
2022-08-02T10:40:50.292Z,8.38
2022-08-02T10:43:35.960Z,8.75
2022-08-02T10:46:25.126Z,6.85
2022-08-02T10:52:05.438Z,8.45
2022-08-02T10:54:47.735Z,11.43
2022-08-02T10:57:33.761Z,10.52
2022-08-02T11:00:04.085Z,10.07
2022-08-02T11:02:40.487Z,7.25
2022-08-02T11:05:15.611Z,6.60
2022-08-02T11:07:49.653Z,5.90
2022-08-02T11:10:26.323Z,6.70
2022-08-02T11:13:14.448Z,4.47
2022-08-02T11:15:50.509Z,10.52
2022-08-02T11:18:19.428Z,4.72
2022-08-02T11:21:07.140Z,5.97
2022-08-02T11:23:45.432Z,9.82
2022-08-02T11:26:31.959Z,4.90
2022-08-02T11:29:02.042Z,8.88
2022-08-02T11:31:42.757Z,7.05
2022-08-02T11:34:37.218Z,6.22
2022-08-02T11:36:59.732Z,6.07
2022-08-02T11:41:57.353Z,5.97
2022-08-02T11:44:28.863Z,6.22
2022-08-02T11:46:58.844Z,5.68
2022-08-02T11:49:27.426Z,10.93
2022-08-02T11:52:06.528Z,4.97
2022-08-02T11:54:42.727Z,5.47
2022-08-02T11:57:19.260Z,8.13
2022-08-02T12:02:17.892Z,5.20
2022-08-02T12:05:04.202Z,5.10
2022-08-02T12:07:37.730Z,5.35
2022-08-02T12:10:18.791Z,5.22
2022-08-02T12:12:51.917Z,4.80
2022-08-02T12:15:45.727Z,6.32
2022-08-02T12:18:33.848Z,5.45
2022-08-02T12:21:01.989Z,4.00
2022-08-02T12:23:30.363Z,4.90
2022-08-02T12:26:16.251Z,7.53
2022-08-02T12:28:44.283Z,4.63
2022-08-02T12:31:18.019Z,9.07
2022-08-02T12:33:47.981Z,5.20
2022-08-02T12:36:22.290Z,4.60
2022-08-02T12:38:58.048Z,6.00
2022-08-02T12:41:30.862Z,6.97
2022-08-02T12:44:00.720Z,6.20
2022-08-02T12:46:28.517Z,5.45
2022-08-02T12:49:16.632Z,7.50
2022-08-02T12:54:38.691Z,4.80
2022-08-02T12:57:14.857Z,6.57
2022-08-02T12:59:47.243Z,6.80
2022-08-02T13:02:16.595Z,4.32
2022-08-02T13:04:49.979Z,7.30
2022-08-02T13:07:19.411Z,6.32
2022-08-02T13:09:48.297Z,7.53
2022-08-02T13:12:16.884Z,3.83
2022-08-02T13:14:44.829Z,5.22
2022-08-02T13:17:13.012Z,3.83
2022-08-02T13:19:42.238Z,6.05
2022-08-02T13:22:10.706Z,3.38
2022-08-02T13:24:55.156Z,3.90
2022-08-02T13:27:28.777Z,5.03
2022-08-02T13:29:57.282Z,5.68
2022-08-02T13:32:25.821Z,3.30
2022-08-02T13:34:53.390Z,6.85
2022-08-02T13:37:21.550Z,5.07
2022-08-02T13:40:18.858Z,4.50
2022-08-02T13:42:39.644Z,5.65
2022-08-02T13:45:12.545Z,6.05
2022-08-02T13:48:04.150Z,9.27
2022-08-02T13:50:33.066Z,8.48
2022-08-02T13:53:00.620Z,5.22
2022-08-02T13:55:28.675Z,4.60
2022-08-02T13:57:56.689Z,5.57
2022-08-02T14:00:34.283Z,12.30
2022-08-02T14:03:07.974Z,8.43
2022-08-02T14:05:48.287Z,8.02
2022-08-02T14:08:20.818Z,4.03
2022-08-02T14:10:50.607Z,5.65
2022-08-02T14:13:19.156Z,5.95
2022-08-02T14:15:47.325Z,6.40
2022-08-02T14:18:15.560Z,7.30
2022-08-02T14:20:45.215Z,8.82
2022-08-02T14:23:13.331Z,9.57
2022-08-02T14:25:41.391Z,4.53
2022-08-02T14:28:09.234Z,4.60
2022-08-02T14:33:21.152Z,5.88
2022-08-02T14:35:48.812Z,9.48
2022-08-02T14:40:46.860Z,7.88
2022-08-02T14:46:07.574Z,6.28
2022-08-02T14:48:35.263Z,10.85
2022-08-02T14:51:02.881Z,8.65
2022-08-02T14:53:30.532Z,8.15
2022-08-02T14:56:06.184Z,11.27
2022-08-02T14:58:34.021Z,9.88
2022-08-02T15:03:43.457Z,6.25
2022-08-02T15:06:14.690Z,7.60
2022-08-02T15:08:48.593Z,10.45
2022-08-02T15:11:20.494Z,8.93
2022-08-02T15:13:50.668Z,12.13
2022-08-02T15:16:26.048Z,11.02
2022-08-02T15:19:06.528Z,10.73
2022-08-02T15:21:41.564Z,9.65
2022-08-02T15:24:24.075Z,9.32
2022-08-02T15:26:53.672Z,9.65
2022-08-02T15:29:24.879Z,10.00
2022-08-02T15:31:52.563Z,11.95
2022-08-02T15:34:20.235Z,9.02
2022-08-02T15:36:47.786Z,9.05
2022-08-02T15:39:15.540Z,6.10
2022-08-02T15:44:10.908Z,11.13
2022-08-02T15:49:07.008Z,7.45
2022-08-02T15:51:37.484Z,10.77
2022-08-02T15:54:05.288Z,9.43
2022-08-02T15:56:32.902Z,11.05
2022-08-02T15:59:00.549Z,12.63
2022-08-02T16:04:07.429Z,10.48
2022-08-02T16:06:36.708Z,7.95
2022-08-02T16:09:04.531Z,8.23
2022-08-02T16:11:32.234Z,7.93
2022-08-02T16:16:31.357Z,10.38
2022-08-02T16:19:46.007Z,8.65
2022-08-02T16:21:53.135Z,8.45
2022-08-02T16:24:23.691Z,11.43
2022-08-02T16:26:52.171Z,7.97
2022-08-02T16:29:20.021Z,13.70
2022-08-02T16:31:48.366Z,10.30
2022-08-02T16:35:04.096Z,7.45
2022-08-02T16:37:27.447Z,9.88
2022-08-02T16:40:17.875Z,12.30
2022-08-02T16:42:50.723Z,7.68
2022-08-02T16:45:32.518Z,10.40
2022-08-02T16:48:05.272Z,8.88
2022-08-02T16:50:33.732Z,6.93
2022-08-02T16:53:07.172Z,10.85
2022-08-02T16:55:35.569Z,11.07
2022-08-02T16:58:03.548Z,8.25
2022-08-02T17:00:33.993Z,8.93
2022-08-02T17:03:13.249Z,6.43
2022-08-02T17:05:56.484Z,10.13
2022-08-02T17:08:31.629Z,10.50
2022-08-02T17:11:03.245Z,12.95
2022-08-02T17:13:34.466Z,12.38
2022-08-02T17:16:25.964Z,11.57
2022-08-02T17:18:55.366Z,12.20
2022-08-02T17:21:23.461Z,7.30
2022-08-02T17:24:06.118Z,12.43
2022-08-02T17:26:58.397Z,11.88
2022-08-02T17:29:53.716Z,11.65
2022-08-02T17:32:22.157Z,9.82
2022-08-02T17:34:59.880Z,13.57
2022-08-02T17:37:41.311Z,17.50
2022-08-02T17:43:21.876Z,10.75
2022-08-02T17:45:59.863Z,15.50
2022-08-02T17:52:49.173Z,11.48
2022-08-02T17:54:38.603Z,10.73
2022-08-02T17:57:12.352Z,12.98
2022-08-02T18:00:08.999Z,14.52
2022-08-02T18:02:38.735Z,12.13
2022-08-02T18:05:11.662Z,14.73
2022-08-02T18:07:43.298Z,14.23
2022-08-02T18:10:19.621Z,16.67
2022-08-02T18:12:47.384Z,14.13
2022-08-02T18:15:19.270Z,17.85
2022-08-02T18:17:48.063Z,14.23
2022-08-02T18:20:18.122Z,16.13
2022-08-02T18:22:45.707Z,14.52
2022-08-02T18:25:37.771Z,16.33
2022-08-02T18:28:10.686Z,12.35
2022-08-02T18:34:00.625Z,18.08
2022-08-02T18:36:06.460Z,15.90
2022-08-02T18:38:36.794Z,16.23
2022-08-02T18:41:12.638Z,15.10
2022-08-02T18:43:43.629Z,15.23
2022-08-02T18:46:16.245Z,21.88
2022-08-02T18:48:46.912Z,13.00
2022-08-02T18:51:18.609Z,21.13
2022-08-02T18:53:51.029Z,15.10
2022-08-02T18:56:25.424Z,17.85
2022-08-02T18:58:55.122Z,15.13
2022-08-02T19:01:33.502Z,17.30
2022-08-02T19:04:08.674Z,18.40
2022-08-02T19:07:07.488Z,18.52
2022-08-02T19:09:40.141Z,17.92
2022-08-02T19:12:12.090Z,23.98
2022-08-02T19:14:40.429Z,20.00
2022-08-02T19:22:26.284Z,19.52
2022-08-02T19:25:01.094Z,14.63
2022-08-02T19:27:32.051Z,20.73
2022-08-02T19:30:02.259Z,20.35
2022-08-02T19:32:40.845Z,22.02
2022-08-02T19:35:29.080Z,17.95
2022-08-02T19:38:06.865Z,18.92
2022-08-02T19:40:34.918Z,18.90
2022-08-02T19:44:26.242Z,19.27
2022-08-02T19:45:51.522Z,20.85
2022-08-02T19:48:23.873Z,21.70
2022-08-02T19:51:00.911Z,16.58
2022-08-02T19:53:47.343Z,25.17
2022-08-02T19:59:12.778Z,22.50
2022-08-02T20:01:44.971Z,24.83
2022-08-02T20:04:15.816Z,18.20
2022-08-02T20:06:51.154Z,18.80
2022-08-02T20:09:20.155Z,21.33
2022-08-02T20:11:54.327Z,20.48
2022-08-02T20:14:27.435Z,21.95
2022-08-02T20:16:56.842Z,24.67
2022-08-02T20:19:25.206Z,17.70
2022-08-02T20:21:59.956Z,21.45
2022-08-02T20:24:29.541Z,21.50
2022-08-02T20:26:59.922Z,22.73
2022-08-02T20:29:43.368Z,17.88
2022-08-02T20:32:23.909Z,24.27
2022-08-02T20:34:52.832Z,21.80
2022-08-02T20:38:00.339Z,18.60
2022-08-02T20:40:10.187Z,25.55
2022-08-02T20:42:48.034Z,29.77
2022-08-02T20:45:16.908Z,25.92
2022-08-02T20:47:49.721Z,17.35
2022-08-02T20:50:38.925Z,22.13
2022-08-02T20:53:08.271Z,25.20
2022-08-02T20:55:53.575Z,23.08
2022-08-02T20:58:26.449Z,24.73
2022-08-02T21:00:59.190Z,21.45
2022-08-02T21:03:39.165Z,20.02
2022-08-02T21:06:11.491Z,22.23
2022-08-02T21:08:45.994Z,19.35
2022-08-02T21:11:14.490Z,23.63
2022-08-02T21:13:46.700Z,22.58
2022-08-02T21:16:19.287Z,21.45
2022-08-02T21:18:51.348Z,25.75
2022-08-02T21:21:19.093Z,22.17
2022-08-02T21:23:54.550Z,20.45
2022-08-02T21:26:25.900Z,24.60
2022-08-02T21:28:56.539Z,21.05
2022-08-02T21:31:24.182Z,22.88
2022-08-02T21:33:59.442Z,22.27
2022-08-02T21:36:34.004Z,21.05
2022-08-02T21:39:08.024Z,24.23
2022-08-02T21:41:46.504Z,24.75
2022-08-02T21:44:17.650Z,25.92
2022-08-02T21:46:53.821Z,22.83
2022-08-02T21:49:40.697Z,24.70
2022-08-02T21:52:12.174Z,26.45
2022-08-02T21:54:41.066Z,21.13
2022-08-02T21:57:15.686Z,21.02
2022-08-02T21:59:52.857Z,27.05
2022-08-02T22:02:30.925Z,19.20
2022-08-02T22:04:58.795Z,22.20
2022-08-02T22:07:26.438Z,24.30
2022-08-02T22:09:55.480Z,29.00
2022-08-02T22:12:26.327Z,23.65
2022-08-02T22:14:56.367Z,22.35
2022-08-02T22:17:51.930Z,32.45
2022-08-02T22:20:21.215Z,26.70
2022-08-02T22:22:52.361Z,18.63
2022-08-02T22:25:26.584Z,28.25
2022-08-02T22:28:36.225Z,24.10
2022-08-02T22:31:04.365Z,26.63
2022-08-02T22:34:00.823Z,23.58
2022-08-02T22:36:30.831Z,23.40
2022-08-02T22:38:59.282Z,21.27
2022-08-02T22:42:01.416Z,24.27
2022-08-02T22:46:46.660Z,19.27
2022-08-02T22:49:36.112Z,20.17
2022-08-02T22:54:29.768Z,30.35
2022-08-02T22:56:59.616Z,28.27
2022-08-02T22:58:49.062Z,12.38
2022-08-02T22:59:08.138Z,19.77
2022-08-02T22:59:39.388Z,18.20
2022-08-02T23:02:08.622Z,25.67
2022-08-02T23:04:36.826Z,26.20
2022-08-02T23:11:59.783Z,19.55
2022-08-02T23:14:27.399Z,25.45
2022-08-02T23:17:13.456Z,24.67
2022-08-02T23:19:52.985Z,21.75
2022-08-02T23:22:24.272Z,28.30
2022-08-02T23:24:59.099Z,23.73
2022-08-02T23:27:26.998Z,27.42
2022-08-02T23:29:54.842Z,23.65
2022-08-02T23:32:25.669Z,22.33
2022-08-02T23:34:57.566Z,26.88
2022-08-02T23:37:25.411Z,26.15
2022-08-02T23:39:53.124Z,22.77
2022-08-02T23:42:20.748Z,32.33
2022-08-02T23:44:48.331Z,31.75
2022-08-02T23:47:16.957Z,23.40
2022-08-02T23:49:44.930Z,30.40
2022-08-02T23:52:13.320Z,25.48
2022-08-02T23:54:41.092Z,26.65
2022-08-02T23:57:20.937Z,24.02
2022-08-02T23:59:51.213Z,30.52
